YMLT Airport Information

Runway Information
Runway 14L Length 2297 ft width 60 ft
Elevation 535 ft Threshold 0 ft Heading 147
Runway 32R Length 2297 ft Width 60 ft
Elevation 545 ft Threshold 0 ft Heading 327
Runway 14R Length 6499 ft width 148 ft
Elevation 560 ft Threshold 0 ft Heading 146
Runway 32L Length 6499 ft Width 148 ft
Elevation 548 ft Threshold 0 ft Heading 326
Runway 18 Length 2264 ft width 60 ft
Elevation 0 ft Threshold 0 ft Heading 196
Runway 36 Length 2264 ft Width 60 ft
Elevation 0 ft Threshold 0 ft Heading 16
Airport Frequencies
Type ATIS Name ATIS Frequency 112.6 MHZ
Type CTAF Name CTAF Frequency 118.7 MHZ
Type FSS Name MELBOURNE Frequency 126.5 MHZ
Type TWR Name TWR Frequency 118.7 MHZ
Airport Navaids
Type VOR-DME Name Launceston Frequency 112600 KHZ
Type NDB Name Launceston Frequency 242 KHZ
Type NDB Name Nile Frequency 230 KHZ
Airport Weather Information & NOTAM
ADDS - METARS form results

(0652 UTC 20 January 2018)
 
METAR text: YMLT 200630Z AUTO 35011KT 9999 // BKN115 24/14 Q1013 RF00.0/000.0
Conditions at: YMLT (LAUNCESTON AIRPO, AU) observed 0630 UTC 20 January 2018
Temperature: 24.0°C (75°F)
Dewpoint: 14.0°C (57°F) [RH = 54%]
Pressure (altimeter): 29.91 inches Hg (1013.0 mb)
Winds: from the N (350 degrees) at 13 MPH (11 knots; 5.7 m/s)
Visibility: 6 or more miles (10+ km)
Ceiling: 11500 feet AGL
Clouds: broken clouds at 11500 feet AGL
Weather: no significant weather observed at this time

METAR text: YMLT 200600Z AUTO 34018KT 9999 // NCD 25/13 Q1013 RF00.0/000.0
Conditions at: YMLT (LAUNCESTON AIRPO, AU) observed 0600 UTC 20 January 2018
Temperature: 25.0°C (77°F)
Dewpoint: 13.0°C (55°F) [RH = 47%]
Pressure (altimeter): 29.91 inches Hg (1013.0 mb)
Winds: from the NNW (340 degrees) at 21 MPH (18 knots; 9.4 m/s)
Visibility: 6 or more miles (10+ km)
Ceiling: at least 12,000 feet AGL
Clouds: sky clear below 12,000 feet AGL
Weather: no significant weather observed at this time